Main page
METAR-TAF:

METAR-TAF

Airports :

Cook Municipal Airport

Cook, Minnesota, United States

latitude: 47-49-19N, longitude: 092-41-22W, elevation: 1328 ft

Current weather observation

The report was made 24 minutes ago, at 08:15 UTC
Calm wind
Temperature 9°F
Humidity 92%
Pressure 30.00 in. Hg
Visibility: 10 miles
Scattered clouds at a height of 7000 ft

METAR: KCQM 020815Z AUTO 00000KT 10SM SCT070 M13/M14 A3000 RMK AO2

Time: 02:39 (08:39 UTC)


TAF: missing

Weather observations and forecasts of more than 4000 airports (METAR and TAF reports).

The available stations are represented by yellow and red dots on the map.

Hover mouse over dot to see the name of the station.

Then click to see weather observations and forecasts.

To change the map : click on the green buttons with a black cross to zoom in, on the green button with a dash to zoom out, or on the green arrows for adjacent maps.


METAR-TAF: